sensor_id;sensor_type;location;lat;lon;timestamp;P1;durP1;ratioP1;P2;durP2;ratioP2
50104;SDS011;47690;39.202;-77.198;2023-06-22T00:01:51;2.15;;;1.95;;
50104;SDS011;47690;39.202;-77.198;2023-06-22T00:04:21;2.22;;;2.03;;
50104;SDS011;47690;39.202;-77.198;2023-06-22T00:06:51;2.80;;;2.33;;
50104;SDS011;47690;39.202;-77.198;2023-06-22T00:09:20;3.10;;;2.50;;
50104;SDS011;47690;39.202;-77.198;2023-06-22T00:11:49;2.42;;;2.20;;
50104;SDS011;47690;39.202;-77.198;2023-06-22T00:14:19;2.13;;;1.85;;
50104;SDS011;47690;39.202;-77.198;2023-06-22T00:16:48;2.25;;;2.00;;
50104;SDS011;47690;39.202;-77.198;2023-06-22T00:19:17;2.05;;;1.85;;
50104;SDS011;47690;39.202;-77.198;2023-06-22T00:21:52;2.70;;;2.20;;
50104;SDS011;47690;39.202;-77.198;2023-06-22T00:24:22;2.50;;;2.10;;
50104;SDS011;47690;39.202;-77.198;2023-06-22T00:26:50;2.47;;;2.22;;
50104;SDS011;47690;39.202;-77.198;2023-06-22T00:29:20;2.35;;;2.05;;
50104;SDS011;47690;39.202;-77.198;2023-06-22T00:31:52;2.00;;;1.83;;
50104;SDS011;47690;39.202;-77.198;2023-06-22T00:34:22;4.07;;;1.95;;
50104;SDS011;47690;39.202;-77.198;2023-06-22T00:36:52;2.42;;;2.00;;
50104;SDS011;47690;39.202;-77.198;2023-06-22T00:39:20;2.25;;;2.05;;
50104;SDS011;47690;39.202;-77.198;2023-06-22T00:41:50;2.65;;;2.00;;
50104;SDS011;47690;39.202;-77.198;2023-06-22T00:44:19;2.60;;;2.20;;
50104;SDS011;47690;39.202;-77.198;2023-06-22T00:46:48;2.70;;;2.20;;
50104;SDS011;47690;39.202;-77.198;2023-06-22T00:49:17;2.75;;;2.13;;
50104;SDS011;47690;39.202;-77.198;2023-06-22T00:51:46;2.10;;;1.75;;
50104;SDS011;47690;39.202;-77.198;2023-06-22T00:54:18;2.88;;;2.00;;
50104;SDS011;47690;39.202;-77.198;2023-06-22T00:56:54;2.72;;;2.00;;
50104;SDS011;47690;39.202;-77.198;2023-06-22T00:59:24;2.10;;;1.80;;
50104;SDS011;47690;39.202;-77.198;2023-06-22T01:01:55;1.80;;;1.70;;
50104;SDS011;47690;39.202;-77.198;2023-06-22T01:04:34;2.63;;;1.90;;
50104;SDS011;47690;39.202;-77.198;2023-06-22T01:09:59;3.63;;;2.10;;
50104;SDS011;47690;39.202;-77.198;2023-06-22T01:12:39;3.50;;;2.08;;
50104;SDS011;47690;39.202;-77.198;2023-06-22T01:15:37;2.50;;;2.17;;
50104;SDS011;47690;39.202;-77.198;2023-06-22T01:18:04;3.28;;;2.20;;
50104;SDS011;47690;39.202;-77.198;2023-06-22T01:20:34;2.65;;;2.03;;
50104;SDS011;47690;39.202;-77.198;2023-06-22T01:23:11;2.20;;;1.95;;
50104;SDS011;47690;39.202;-77.198;2023-06-22T01:31:24;2.53;;;2.00;;
50104;SDS011;47690;39.202;-77.198;2023-06-22T01:33:56;2.88;;;2.08;;
50104;SDS011;47690;39.202;-77.198;2023-06-22T01:36:32;2.20;;;2.00;;
50104;SDS011;47690;39.202;-77.198;2023-06-22T01:39:04;2.10;;;1.88;;
50104;SDS011;47690;39.202;-77.198;2023-06-22T01:41:36;1.95;;;1.77;;
50104;SDS011;47690;39.202;-77.198;2023-06-22T01:44:07;2.10;;;1.90;;
50104;SDS011;47690;39.202;-77.198;2023-06-22T01:46:42;2.55;;;2.20;;
50104;SDS011;47690;39.202;-77.198;2023-06-22T01:49:14;2.45;;;1.98;;
50104;SDS011;47690;39.202;-77.198;2023-06-22T01:51:44;2.05;;;1.80;;
50104;SDS011;47690;39.202;-77.198;2023-06-22T01:54:14;1.90;;;1.80;;
50104;SDS011;47690;39.202;-77.198;2023-06-22T01:56:44;2.30;;;2.10;;
50104;SDS011;47690;39.202;-77.198;2023-06-22T01:59:17;2.53;;;2.03;;
50104;SDS011;47690;39.202;-77.198;2023-06-22T02:02:07;2.40;;;2.05;;
50104;SDS011;47690;39.202;-77.198;2023-06-22T02:05:00;2.85;;;2.10;;
50104;SDS011;47690;39.202;-77.198;2023-06-22T02:07:36;2.65;;;2.15;;
50104;SDS011;47690;39.202;-77.198;2023-06-22T02:10:20;2.17;;;1.98;;
50104;SDS011;47690;39.202;-77.198;2023-06-22T02:12:51;2.00;;;1.83;;
50104;SDS011;47690;39.202;-77.198;2023-06-22T02:15:20;2.85;;;2.10;;
50104;SDS011;47690;39.202;-77.198;2023-06-22T02:17:59;2.28;;;2.03;;
50104;SDS011;47690;39.202;-77.198;2023-06-22T02:22:57;2.03;;;1.83;;
50104;SDS011;47690;39.202;-77.198;2023-06-22T02:25:26;2.25;;;1.90;;
50104;SDS011;47690;39.202;-77.198;2023-06-22T02:27:56;1.95;;;1.60;;
50104;SDS011;47690;39.202;-77.198;2023-06-22T02:30:26;2.17;;;1.80;;
50104;SDS011;47690;39.202;-77.198;2023-06-22T02:32:56;2.30;;;1.90;;
50104;SDS011;47690;39.202;-77.198;2023-06-22T02:35:30;2.03;;;1.83;;
50104;SDS011;47690;39.202;-77.198;2023-06-22T02:40:55;2.10;;;1.90;;
50104;SDS011;47690;39.202;-77.198;2023-06-22T02:43:25;2.00;;;1.70;;
50104;SDS011;47690;39.202;-77.198;2023-06-22T02:45:54;1.95;;;1.73;;
50104;SDS011;47690;39.202;-77.198;2023-06-22T02:48:27;2.33;;;2.10;;
50104;SDS011;47690;39.202;-77.198;2023-06-22T02:50:58;1.80;;;1.70;;
50104;SDS011;47690;39.202;-77.198;2023-06-22T02:53:28;3.22;;;2.17;;
50104;SDS011;47690;39.202;-77.198;2023-06-22T02:55:59;2.38;;;1.80;;
50104;SDS011;47690;39.202;-77.198;2023-06-22T02:58:32;2.20;;;1.73;;
50104;SDS011;47690;39.202;-77.198;2023-06-22T03:01:10;2.03;;;1.80;;
50104;SDS011;47690;39.202;-77.198;2023-06-22T03:03:49;1.75;;;1.63;;
50104;SDS011;47690;39.202;-77.198;2023-06-22T03:06:20;1.70;;;1.60;;
50104;SDS011;47690;39.202;-77.198;2023-06-22T03:08:58;2.20;;;1.58;;
50104;SDS011;47690;39.202;-77.198;2023-06-22T03:11:30;1.60;;;1.40;;
50104;SDS011;47690;39.202;-77.198;2023-06-22T03:14:02;2.85;;;1.80;;
50104;SDS011;47690;39.202;-77.198;2023-06-22T03:16:32;2.13;;;1.70;;
50104;SDS011;47690;39.202;-77.198;2023-06-22T03:19:02;2.00;;;1.80;;
50104;SDS011;47690;39.202;-77.198;2023-06-22T03:21:32;1.63;;;1.52;;
50104;SDS011;47690;39.202;-77.198;2023-06-22T03:24:01;2.78;;;1.67;;
50104;SDS011;47690;39.202;-77.198;2023-06-22T03:26:31;2.20;;;1.60;;
50104;SDS011;47690;39.202;-77.198;2023-06-22T03:29:07;2.28;;;1.60;;
50104;SDS011;47690;39.202;-77.198;2023-06-22T03:31:36;2.17;;;1.73;;
50104;SDS011;47690;39.202;-77.198;2023-06-22T03:34:06;1.92;;;1.75;;
50104;SDS011;47690;39.202;-77.198;2023-06-22T03:36:35;1.77;;;1.60;;
50104;SDS011;47690;39.202;-77.198;2023-06-22T03:39:05;2.15;;;1.80;;
50104;SDS011;47690;39.202;-77.198;2023-06-22T03:41:35;1.85;;;1.60;;
50104;SDS011;47690;39.202;-77.198;2023-06-22T03:44:04;2.35;;;1.50;;
50104;SDS011;47690;39.202;-77.198;2023-06-22T03:46:34;2.38;;;1.80;;
50104;SDS011;47690;39.202;-77.198;2023-06-22T03:49:04;2.05;;;1.60;;
50104;SDS011;47690;39.202;-77.198;2023-06-22T03:51:33;2.00;;;1.50;;
50104;SDS011;47690;39.202;-77.198;2023-06-22T03:54:02;3.17;;;1.65;;
50104;SDS011;47690;39.202;-77.198;2023-06-22T03:56:32;1.80;;;1.60;;
50104;SDS011;47690;39.202;-77.198;2023-06-22T03:59:01;2.03;;;1.50;;
50104;SDS011;47690;39.202;-77.198;2023-06-22T04:01:30;2.08;;;1.70;;
50104;SDS011;47690;39.202;-77.198;2023-06-22T04:03:59;2.20;;;1.70;;
50104;SDS011;47690;39.202;-77.198;2023-06-22T04:06:28;2.63;;;1.65;;
50104;SDS011;47690;39.202;-77.198;2023-06-22T04:09:02;3.75;;;1.58;;
50104;SDS011;47690;39.202;-77.198;2023-06-22T04:11:32;2.63;;;1.85;;
50104;SDS011;47690;39.202;-77.198;2023-06-22T04:14:01;2.67;;;1.55;;
50104;SDS011;47690;39.202;-77.198;2023-06-22T04:16:31;1.75;;;1.65;;
50104;SDS011;47690;39.202;-77.198;2023-06-22T04:18:59;1.98;;;1.77;;
50104;SDS011;47690;39.202;-77.198;2023-06-22T04:21:28;2.67;;;1.70;;
50104;SDS011;47690;39.202;-77.198;2023-06-22T04:23:57;2.15;;;1.65;;
50104;SDS011;47690;39.202;-77.198;2023-06-22T04:26:26;1.45;;;1.35;;
50104;SDS011;47690;39.202;-77.198;2023-06-22T04:28:54;2.10;;;1.58;;
50104;SDS011;47690;39.202;-77.198;2023-06-22T04:31:23;2.25;;;1.60;;
50104;SDS011;47690;39.202;-77.198;2023-06-22T04:34:00;2.53;;;1.70;;
50104;SDS011;47690;39.202;-77.198;2023-06-22T04:39:10;2.28;;;1.55;;
50104;SDS011;47690;39.202;-77.198;2023-06-22T04:41:40;2.20;;;1.45;;
50104;SDS011;47690;39.202;-77.198;2023-06-22T04:44:13;2.80;;;1.83;;
50104;SDS011;47690;39.202;-77.198;2023-06-22T04:46:55;2.63;;;1.67;;
50104;SDS011;47690;39.202;-77.198;2023-06-22T04:49:36;3.00;;;1.48;;
50104;SDS011;47690;39.202;-77.198;2023-06-22T04:52:06;2.30;;;1.60;;
50104;SDS011;47690;39.202;-77.198;2023-06-22T04:54:41;3.15;;;1.60;;
50104;SDS011;47690;39.202;-77.198;2023-06-22T04:57:15;1.90;;;1.70;;
50104;SDS011;47690;39.202;-77.198;2023-06-22T04:59:44;2.13;;;1.73;;
50104;SDS011;47690;39.202;-77.198;2023-06-22T05:02:14;1.92;;;1.73;;
50104;SDS011;47690;39.202;-77.198;2023-06-22T05:04:45;1.70;;;1.60;;
50104;SDS011;47690;39.202;-77.198;2023-06-22T05:07:22;2.35;;;1.83;;
50104;SDS011;47690;39.202;-77.198;2023-06-22T05:09:55;3.15;;;1.60;;
50104;SDS011;47690;39.202;-77.198;2023-06-22T05:12:24;1.83;;;1.73;;
50104;SDS011;47690;39.202;-77.198;2023-06-22T05:14:53;1.83;;;1.60;;
50104;SDS011;47690;39.202;-77.198;2023-06-22T05:17:23;1.60;;;1.50;;
50104;SDS011;47690;39.202;-77.198;2023-06-22T05:19:54;2.65;;;1.70;;
50104;SDS011;47690;39.202;-77.198;2023-06-22T05:22:25;1.85;;;1.65;;
50104;SDS011;47690;39.202;-77.198;2023-06-22T05:24:54;3.30;;;1.58;;
50104;SDS011;47690;39.202;-77.198;2023-06-22T05:27:24;2.30;;;1.90;;
50104;SDS011;47690;39.202;-77.198;2023-06-22T05:29:53;2.40;;;1.90;;
50104;SDS011;47690;39.202;-77.198;2023-06-22T05:32:21;2.20;;;1.83;;
50104;SDS011;47690;39.202;-77.198;2023-06-22T05:34:52;2.63;;;1.77;;
50104;SDS011;47690;39.202;-77.198;2023-06-22T05:37:21;1.50;;;1.40;;
50104;SDS011;47690;39.202;-77.198;2023-06-22T05:39:50;2.63;;;1.80;;
50104;SDS011;47690;39.202;-77.198;2023-06-22T05:42:19;2.20;;;1.77;;
50104;SDS011;47690;39.202;-77.198;2023-06-22T05:44:47;2.67;;;1.70;;
50104;SDS011;47690;39.202;-77.198;2023-06-22T05:47:16;2.55;;;1.50;;
50104;SDS011;47690;39.202;-77.198;2023-06-22T05:49:45;1.73;;;1.60;;
50104;SDS011;47690;39.202;-77.198;2023-06-22T05:52:14;3.00;;;1.60;;
50104;SDS011;47690;39.202;-77.198;2023-06-22T05:54:46;2.40;;;1.80;;
50104;SDS011;47690;39.202;-77.198;2023-06-22T05:57:15;2.20;;;1.38;;
50104;SDS011;47690;39.202;-77.198;2023-06-22T05:59:46;1.70;;;1.60;;
50104;SDS011;47690;39.202;-77.198;2023-06-22T06:02:15;1.90;;;1.77;;
50104;SDS011;47690;39.202;-77.198;2023-06-22T06:04:45;1.88;;;1.70;;
50104;SDS011;47690;39.202;-77.198;2023-06-22T06:07:15;1.95;;;1.67;;
50104;SDS011;47690;39.202;-77.198;2023-06-22T06:09:44;1.50;;;1.40;;
50104;SDS011;47690;39.202;-77.198;2023-06-22T06:12:13;1.88;;;1.67;;
50104;SDS011;47690;39.202;-77.198;2023-06-22T06:14:43;2.25;;;1.70;;
50104;SDS011;47690;39.202;-77.198;2023-06-22T06:17:12;2.05;;;1.48;;
50104;SDS011;47690;39.202;-77.198;2023-06-22T06:19:42;1.60;;;1.50;;
50104;SDS011;47690;39.202;-77.198;2023-06-22T06:22:12;1.60;;;1.50;;
50104;SDS011;47690;39.202;-77.198;2023-06-22T06:24:40;4.10;;;1.80;;
50104;SDS011;47690;39.202;-77.198;2023-06-22T06:27:10;1.70;;;1.60;;
50104;SDS011;47690;39.202;-77.198;2023-06-22T06:29:39;3.30;;;1.70;;
50104;SDS011;47690;39.202;-77.198;2023-06-22T06:32:10;1.45;;;1.35;;
50104;SDS011;47690;39.202;-77.198;2023-06-22T06:34:40;2.13;;;1.40;;
50104;SDS011;47690;39.202;-77.198;2023-06-22T06:37:09;1.35;;;1.25;;
50104;SDS011;47690;39.202;-77.198;2023-06-22T06:39:38;2.17;;;1.70;;
50104;SDS011;47690;39.202;-77.198;2023-06-22T06:42:08;1.60;;;1.50;;
50104;SDS011;47690;39.202;-77.198;2023-06-22T06:44:40;1.42;;;1.25;;
50104;SDS011;47690;39.202;-77.198;2023-06-22T06:47:10;1.45;;;1.35;;
50104;SDS011;47690;39.202;-77.198;2023-06-22T06:49:39;1.80;;;1.65;;
50104;SDS011;47690;39.202;-77.198;2023-06-22T06:52:09;2.35;;;1.77;;
50104;SDS011;47690;39.202;-77.198;2023-06-22T06:54:38;1.75;;;1.63;;
50104;SDS011;47690;39.202;-77.198;2023-06-22T06:57:07;1.58;;;1.48;;
50104;SDS011;47690;39.202;-77.198;2023-06-22T06:59:38;1.65;;;1.45;;
50104;SDS011;47690;39.202;-77.198;2023-06-22T07:02:08;2.67;;;1.38;;
50104;SDS011;47690;39.202;-77.198;2023-06-22T07:04:37;1.52;;;1.42;;
50104;SDS011;47690;39.202;-77.198;2023-06-22T07:07:06;1.88;;;1.50;;
50104;SDS011;47690;39.202;-77.198;2023-06-22T07:09:35;1.70;;;1.60;;
50104;SDS011;47690;39.202;-77.198;2023-06-22T07:12:04;1.85;;;1.65;;
50104;SDS011;47690;39.202;-77.198;2023-06-22T07:14:33;1.50;;;1.40;;
50104;SDS011;47690;39.202;-77.198;2023-06-22T07:17:03;2.35;;;1.70;;
50104;SDS011;47690;39.202;-77.198;2023-06-22T07:19:32;1.45;;;1.35;;
50104;SDS011;47690;39.202;-77.198;2023-06-22T07:22:02;2.20;;;1.50;;
50104;SDS011;47690;39.202;-77.198;2023-06-22T07:24:31;2.38;;;1.42;;
50104;SDS011;47690;39.202;-77.198;2023-06-22T07:27:01;1.88;;;1.63;;
50104;SDS011;47690;39.202;-77.198;2023-06-22T07:29:31;2.00;;;1.75;;
50104;SDS011;47690;39.202;-77.198;2023-06-22T07:32:01;1.70;;;1.60;;
50104;SDS011;47690;39.202;-77.198;2023-06-22T07:34:33;1.83;;;1.40;;
50104;SDS011;47690;39.202;-77.198;2023-06-22T07:37:02;1.65;;;1.40;;
50104;SDS011;47690;39.202;-77.198;2023-06-22T07:39:32;1.63;;;1.52;;
50104;SDS011;47690;39.202;-77.198;2023-06-22T07:42:01;1.80;;;1.60;;
50104;SDS011;47690;39.202;-77.198;2023-06-22T07:44:31;2.10;;;1.60;;
50104;SDS011;47690;39.202;-77.198;2023-06-22T07:47:00;2.33;;;1.73;;
50104;SDS011;47690;39.202;-77.198;2023-06-22T07:49:29;1.70;;;1.60;;
50104;SDS011;47690;39.202;-77.198;2023-06-22T07:51:58;1.95;;;1.45;;
50104;SDS011;47690;39.202;-77.198;2023-06-22T07:54:30;1.70;;;1.60;;
50104;SDS011;47690;39.202;-77.198;2023-06-22T07:57:00;1.70;;;1.60;;
50104;SDS011;47690;39.202;-77.198;2023-06-22T07:59:29;2.53;;;1.70;;
50104;SDS011;47690;39.202;-77.198;2023-06-22T08:01:58;4.25;;;1.70;;
50104;SDS011;47690;39.202;-77.198;2023-06-22T08:04:28;2.72;;;1.42;;
50104;SDS011;47690;39.202;-77.198;2023-06-22T08:06:59;2.00;;;1.80;;
50104;SDS011;47690;39.202;-77.198;2023-06-22T08:09:30;3.33;;;1.70;;
50104;SDS011;47690;39.202;-77.198;2023-06-22T08:11:59;1.73;;;1.38;;
50104;SDS011;47690;39.202;-77.198;2023-06-22T08:14:29;2.75;;;1.48;;
50104;SDS011;47690;39.202;-77.198;2023-06-22T08:16:58;1.50;;;1.40;;
50104;SDS011;47690;39.202;-77.198;2023-06-22T08:19:36;1.70;;;1.60;;
50104;SDS011;47690;39.202;-77.198;2023-06-22T08:22:05;1.92;;;1.70;;
50104;SDS011;47690;39.202;-77.198;2023-06-22T08:24:34;1.58;;;1.27;;
50104;SDS011;47690;39.202;-77.198;2023-06-22T08:27:03;1.60;;;1.50;;
50104;SDS011;47690;39.202;-77.198;2023-06-22T08:29:36;1.60;;;1.50;;
50104;SDS011;47690;39.202;-77.198;2023-06-22T08:32:06;2.00;;;1.80;;
50104;SDS011;47690;39.202;-77.198;2023-06-22T08:34:35;1.95;;;1.70;;
50104;SDS011;47690;39.202;-77.198;2023-06-22T08:37:04;1.75;;;1.50;;
50104;SDS011;47690;39.202;-77.198;2023-06-22T08:40:04;2.55;;;1.50;;
50104;SDS011;47690;39.202;-77.198;2023-06-22T08:42:37;2.33;;;1.70;;
50104;SDS011;47690;39.202;-77.198;2023-06-22T08:45:06;1.95;;;1.35;;
50104;SDS011;47690;39.202;-77.198;2023-06-22T08:47:36;1.95;;;1.70;;
50104;SDS011;47690;39.202;-77.198;2023-06-22T08:50:06;1.67;;;1.58;;
50104;SDS011;47690;39.202;-77.198;2023-06-22T08:52:40;1.85;;;1.73;;
50104;SDS011;47690;39.202;-77.198;2023-06-22T08:55:10;1.80;;;1.50;;
50104;SDS011;47690;39.202;-77.198;2023-06-22T08:57:39;1.75;;;1.65;;
50104;SDS011;47690;39.202;-77.198;2023-06-22T09:00:08;1.58;;;1.42;;
50104;SDS011;47690;39.202;-77.198;2023-06-22T09:02:46;1.60;;;1.50;;
50104;SDS011;47690;39.202;-77.198;2023-06-22T09:05:16;1.70;;;1.60;;
50104;SDS011;47690;39.202;-77.198;2023-06-22T09:07:46;2.90;;;1.63;;
50104;SDS011;47690;39.202;-77.198;2023-06-22T09:10:15;2.22;;;1.50;;
50104;SDS011;47690;39.202;-77.198;2023-06-22T09:12:44;1.75;;;1.42;;
50104;SDS011;47690;39.202;-77.198;2023-06-22T09:15:14;1.67;;;1.55;;
50104;SDS011;47690;39.202;-77.198;2023-06-22T09:17:45;2.22;;;1.40;;
50104;SDS011;47690;39.202;-77.198;2023-06-22T09:20:16;2.67;;;1.80;;
50104;SDS011;47690;39.202;-77.198;2023-06-22T09:22:47;1.58;;;1.48;;
50104;SDS011;47690;39.202;-77.198;2023-06-22T09:25:16;1.50;;;1.40;;
50104;SDS011;47690;39.202;-77.198;2023-06-22T09:27:49;1.77;;;1.50;;
50104;SDS011;47690;39.202;-77.198;2023-06-22T09:30:18;2.17;;;1.67;;
50104;SDS011;47690;39.202;-77.198;2023-06-22T09:32:47;3.40;;;1.65;;
50104;SDS011;47690;39.202;-77.198;2023-06-22T09:35:18;1.77;;;1.67;;
50104;SDS011;47690;39.202;-77.198;2023-06-22T09:37:48;1.88;;;1.77;;
50104;SDS011;47690;39.202;-77.198;2023-06-22T09:40:22;1.48;;;1.38;;
50104;SDS011;47690;39.202;-77.198;2023-06-22T09:42:54;2.90;;;1.63;;
50104;SDS011;47690;39.202;-77.198;2023-06-22T09:45:23;1.50;;;1.40;;
50104;SDS011;47690;39.202;-77.198;2023-06-22T09:47:53;2.42;;;1.63;;
50104;SDS011;47690;39.202;-77.198;2023-06-22T09:50:22;1.60;;;1.50;;
50104;SDS011;47690;39.202;-77.198;2023-06-22T09:52:51;2.30;;;1.38;;
50104;SDS011;47690;39.202;-77.198;2023-06-22T09:55:23;3.50;;;1.60;;
50104;SDS011;47690;39.202;-77.198;2023-06-22T09:57:53;2.00;;;1.55;;
50104;SDS011;47690;39.202;-77.198;2023-06-22T10:00:26;1.70;;;1.60;;
50104;SDS011;47690;39.202;-77.198;2023-06-22T10:07:20;1.45;;;1.35;;
50104;SDS011;47690;39.202;-77.198;2023-06-22T10:09:53;2.97;;;1.60;;
50104;SDS011;47690;39.202;-77.198;2023-06-22T10:12:23;2.28;;;1.80;;
50104;SDS011;47690;39.202;-77.198;2023-06-22T10:14:53;2.35;;;1.80;;
50104;SDS011;47690;39.202;-77.198;2023-06-22T10:17:23;2.20;;;1.70;;
50104;SDS011;47690;39.202;-77.198;2023-06-22T10:19:55;3.33;;;1.80;;
50104;SDS011;47690;39.202;-77.198;2023-06-22T10:22:25;1.60;;;1.50;;
50104;SDS011;47690;39.202;-77.198;2023-06-22T10:24:54;3.10;;;1.80;;
50104;SDS011;47690;39.202;-77.198;2023-06-22T10:27:23;2.45;;;1.70;;
50104;SDS011;47690;39.202;-77.198;2023-06-22T10:29:54;1.95;;;1.67;;
50104;SDS011;47690;39.202;-77.198;2023-06-22T10:32:23;2.05;;;1.75;;
50104;SDS011;47690;39.202;-77.198;2023-06-22T10:34:51;1.70;;;1.60;;
50104;SDS011;47690;39.202;-77.198;2023-06-22T10:37:22;2.03;;;1.73;;
50104;SDS011;47690;39.202;-77.198;2023-06-22T10:39:51;2.55;;;1.83;;
50104;SDS011;47690;39.202;-77.198;2023-06-22T10:42:20;2.20;;;1.70;;
50104;SDS011;47690;39.202;-77.198;2023-06-22T10:44:50;2.25;;;1.73;;
50104;SDS011;47690;39.202;-77.198;2023-06-22T10:47:19;3.60;;;1.75;;
50104;SDS011;47690;39.202;-77.198;2023-06-22T10:49:47;1.95;;;1.48;;
50104;SDS011;47690;39.202;-77.198;2023-06-22T10:52:17;3.40;;;1.63;;
50104;SDS011;47690;39.202;-77.198;2023-06-22T10:54:48;2.05;;;1.83;;
50104;SDS011;47690;39.202;-77.198;2023-06-22T10:57:18;3.15;;;1.65;;
50104;SDS011;47690;39.202;-77.198;2023-06-22T10:59:48;1.80;;;1.70;;
50104;SDS011;47690;39.202;-77.198;2023-06-22T11:02:19;2.28;;;1.63;;
50104;SDS011;47690;39.202;-77.198;2023-06-22T11:04:50;3.00;;;1.60;;
50104;SDS011;47690;39.202;-77.198;2023-06-22T11:07:19;1.85;;;1.67;;
50104;SDS011;47690;39.202;-77.198;2023-06-22T11:09:50;2.28;;;1.70;;
50104;SDS011;47690;39.202;-77.198;2023-06-22T11:12:23;2.30;;;1.60;;
50104;SDS011;47690;39.202;-77.198;2023-06-22T11:14:56;3.08;;;1.77;;
50104;SDS011;47690;39.202;-77.198;2023-06-22T11:17:28;1.80;;;1.70;;
50104;SDS011;47690;39.202;-77.198;2023-06-22T11:19:57;2.95;;;1.73;;
50104;SDS011;47690;39.202;-77.198;2023-06-22T11:22:33;2.33;;;1.50;;
50104;SDS011;47690;39.202;-77.198;2023-06-22T11:25:02;1.70;;;1.60;;
50104;SDS011;47690;39.202;-77.198;2023-06-22T11:27:32;1.83;;;1.58;;
50104;SDS011;47690;39.202;-77.198;2023-06-22T11:30:02;1.58;;;1.48;;
50104;SDS011;47690;39.202;-77.198;2023-06-22T11:32:33;3.03;;;1.70;;
50104;SDS011;47690;39.202;-77.198;2023-06-22T11:35:03;1.67;;;1.58;;
50104;SDS011;47690;39.202;-77.198;2023-06-22T11:37:32;1.88;;;1.48;;
50104;SDS011;47690;39.202;-77.198;2023-06-22T11:40:02;1.70;;;1.50;;
50104;SDS011;47690;39.202;-77.198;2023-06-22T11:42:35;1.50;;;1.40;;
50104;SDS011;47690;39.202;-77.198;2023-06-22T11:45:04;1.63;;;1.52;;
50104;SDS011;47690;39.202;-77.198;2023-06-22T11:47:35;1.83;;;1.67;;
50104;SDS011;47690;39.202;-77.198;2023-06-22T11:50:06;1.40;;;1.30;;
50104;SDS011;47690;39.202;-77.198;2023-06-22T11:52:35;1.23;;;1.13;;
50104;SDS011;47690;39.202;-77.198;2023-06-22T11:55:05;1.50;;;1.30;;
50104;SDS011;47690;39.202;-77.198;2023-06-22T11:57:35;1.52;;;1.40;;
50104;SDS011;47690;39.202;-77.198;2023-06-22T12:00:07;1.67;;;1.58;;
50104;SDS011;47690;39.202;-77.198;2023-06-22T12:02:49;2.00;;;1.38;;
50104;SDS011;47690;39.202;-77.198;2023-06-22T12:05:27;1.60;;;1.50;;
50104;SDS011;47690;39.202;-77.198;2023-06-22T12:07:57;2.50;;;1.35;;
50104;SDS011;47690;39.202;-77.198;2023-06-22T12:10:26;1.13;;;1.10;;
50104;SDS011;47690;39.202;-77.198;2023-06-22T12:13:01;2.33;;;1.30;;
50104;SDS011;47690;39.202;-77.198;2023-06-22T12:15:31;1.50;;;1.40;;
50104;SDS011;47690;39.202;-77.198;2023-06-22T12:18:01;1.30;;;1.23;;
50104;SDS011;47690;39.202;-77.198;2023-06-22T12:20:33;1.92;;;1.60;;
50104;SDS011;47690;39.202;-77.198;2023-06-22T12:23:02;1.35;;;1.23;;
50104;SDS011;47690;39.202;-77.198;2023-06-22T12:25:31;1.90;;;1.40;;
50104;SDS011;47690;39.202;-77.198;2023-06-22T12:28:00;1.48;;;1.30;;
50104;SDS011;47690;39.202;-77.198;2023-06-22T12:30:32;1.42;;;1.33;;
50104;SDS011;47690;39.202;-77.198;2023-06-22T12:33:02;1.42;;;1.25;;
50104;SDS011;47690;39.202;-77.198;2023-06-22T12:35:31;1.25;;;1.20;;
50104;SDS011;47690;39.202;-77.198;2023-06-22T12:38:00;1.35;;;1.20;;
50104;SDS011;47690;39.202;-77.198;2023-06-22T12:40:30;1.23;;;1.13;;
50104;SDS011;47690;39.202;-77.198;2023-06-22T12:43:02;1.10;;;1.10;;
50104;SDS011;47690;39.202;-77.198;2023-06-22T12:45:30;2.42;;;1.45;;
50104;SDS011;47690;39.202;-77.198;2023-06-22T12:48:02;1.20;;;1.10;;
50104;SDS011;47690;39.202;-77.198;2023-06-22T12:50:31;1.60;;;1.35;;
50104;SDS011;47690;39.202;-77.198;2023-06-22T12:53:08;1.40;;;1.30;;
50104;SDS011;47690;39.202;-77.198;2023-06-22T12:55:43;1.05;;;1.05;;
50104;SDS011;47690;39.202;-77.198;2023-06-22T12:58:12;2.15;;;1.40;;
50104;SDS011;47690;39.202;-77.198;2023-06-22T13:00:46;1.27;;;1.17;;
50104;SDS011;47690;39.202;-77.198;2023-06-22T13:03:15;1.48;;;1.38;;
50104;SDS011;47690;39.202;-77.198;2023-06-22T13:05:45;1.67;;;1.42;;
50104;SDS011;47690;39.202;-77.198;2023-06-22T13:08:15;1.27;;;1.17;;
50104;SDS011;47690;39.202;-77.198;2023-06-22T13:10:43;1.27;;;1.17;;
50104;SDS011;47690;39.202;-77.198;2023-06-22T13:13:14;1.50;;;1.40;;
50104;SDS011;47690;39.202;-77.198;2023-06-22T13:15:46;1.00;;;1.00;;
50104;SDS011;47690;39.202;-77.198;2023-06-22T13:18:15;1.73;;;1.40;;
50104;SDS011;47690;39.202;-77.198;2023-06-22T13:20:43;1.60;;;1.48;;
50104;SDS011;47690;39.202;-77.198;2023-06-22T13:23:13;1.10;;;1.10;;
50104;SDS011;47690;39.202;-77.198;2023-06-22T13:25:42;1.20;;;1.10;;
50104;SDS011;47690;39.202;-77.198;2023-06-22T13:28:10;1.33;;;1.23;;
50104;SDS011;47690;39.202;-77.198;2023-06-22T13:30:54;1.20;;;1.17;;
50104;SDS011;47690;39.202;-77.198;2023-06-22T13:33:23;1.38;;;1.27;;
50104;SDS011;47690;39.202;-77.198;2023-06-22T13:35:52;1.73;;;1.35;;
50104;SDS011;47690;39.202;-77.198;2023-06-22T13:38:20;1.17;;;1.08;;
50104;SDS011;47690;39.202;-77.198;2023-06-22T13:40:50;1.35;;;1.25;;
50104;SDS011;47690;39.202;-77.198;2023-06-22T13:43:18;1.40;;;1.30;;
50104;SDS011;47690;39.202;-77.198;2023-06-22T13:45:47;2.28;;;1.27;;
50104;SDS011;47690;39.202;-77.198;2023-06-22T13:48:15;1.00;;;1.00;;
50104;SDS011;47690;39.202;-77.198;2023-06-22T13:50:44;1.20;;;1.10;;
50104;SDS011;47690;39.202;-77.198;2023-06-22T13:53:13;2.22;;;1.08;;
50104;SDS011;47690;39.202;-77.198;2023-06-22T13:55:42;1.23;;;1.20;;
50104;SDS011;47690;39.202;-77.198;2023-06-22T13:58:10;1.40;;;1.30;;
50104;SDS011;47690;39.202;-77.198;2023-06-22T14:00:41;1.42;;;1.15;;
50104;SDS011;47690;39.202;-77.198;2023-06-22T14:03:15;1.38;;;1.20;;
50104;SDS011;47690;39.202;-77.198;2023-06-22T14:06:35;0.88;;;0.88;;
50104;SDS011;47690;39.202;-77.198;2023-06-22T14:09:34;0.93;;;0.93;;
50104;SDS011;47690;39.202;-77.198;2023-06-22T14:16:01;1.17;;;1.08;;
50104;SDS011;47690;39.202;-77.198;2023-06-22T14:19:03;1.30;;;1.20;;
50104;SDS011;47690;39.202;-77.198;2023-06-22T14:22:09;1.20;;;1.13;;
50104;SDS011;47690;39.202;-77.198;2023-06-22T14:25:19;0.93;;;0.93;;
50104;SDS011;47690;39.202;-77.198;2023-06-22T14:28:21;1.00;;;1.00;;
50104;SDS011;47690;39.202;-77.198;2023-06-22T14:31:26;1.55;;;1.38;;
50104;SDS011;47690;39.202;-77.198;2023-06-22T14:34:33;0.82;;;0.82;;
50104;SDS011;47690;39.202;-77.198;2023-06-22T14:37:35;1.00;;;1.00;;
50104;SDS011;47690;39.202;-77.198;2023-06-22T14:40:38;0.90;;;0.90;;
50104;SDS011;47690;39.202;-77.198;2023-06-22T14:44:01;1.02;;;1.02;;
50104;SDS011;47690;39.202;-77.198;2023-06-22T14:47:02;1.45;;;1.30;;
50104;SDS011;47690;39.202;-77.198;2023-06-22T14:50:04;0.88;;;0.88;;
50104;SDS011;47690;39.202;-77.198;2023-06-22T14:56:37;1.33;;;1.23;;
50104;SDS011;47690;39.202;-77.198;2023-06-22T15:00:08;1.05;;;1.00;;
50104;SDS011;47690;39.202;-77.198;2023-06-22T15:04:07;0.80;;;0.80;;
50104;SDS011;47690;39.202;-77.198;2023-06-22T15:07:30;1.00;;;1.00;;
50104;SDS011;47690;39.202;-77.198;2023-06-22T15:11:02;1.40;;;1.20;;
50104;SDS011;47690;39.202;-77.198;2023-06-22T15:14:08;1.40;;;1.27;;
50104;SDS011;47690;39.202;-77.198;2023-06-22T15:17:26;1.33;;;1.23;;
50104;SDS011;47690;39.202;-77.198;2023-06-22T15:20:42;0.98;;;0.93;;
50104;SDS011;47690;39.202;-77.198;2023-06-22T15:23:51;1.38;;;1.20;;
50104;SDS011;47690;39.202;-77.198;2023-06-22T15:26:59;0.98;;;0.98;;